Time;durP1;ratioP1;P1;durP2;ratioP2;P2;SDS_P1;SDS_P2;PMS_P1;PMS_P2;Temp;Humidity;BMP_temperature;BMP_pressure;BME280_temperature;BME280_humidity;BME280_pressure;Samples;Min_cycle;Max_cycle;Signal;HPM_P1;HPM_P2
2022/10/19 00:01:20;;;;;;;11.57;2.42;;;;;;;7.32;94.58;102826.72;5012027;28;20073;-70
2022/10/19 00:03:53;;;;;;;8.93;2.28;;;;;;;7.29;94.39;102827.56;5011490;28;20039;-70
2022/10/19 00:06:31;;;;;;;12.82;2.65;;;;;;;7.26;94.61;102832.75;5013726;28;20043;-70
2022/10/19 00:09:15;;;;;;;14.75;2.92;;;;;;;7.29;94.95;102819.69;5011869;28;20043;-69
2022/10/19 00:11:47;;;;;;;14.55;3.55;;;;;;;7.40;95.66;102821.59;5015954;28;20042;-70
2022/10/19 00:14:21;;;;;;;12.15;3.60;;;;;;;7.47;96.05;102831.31;5012448;28;20507;-70
2022/10/19 00:16:51;;;;;;;13.32;2.90;;;;;;;7.48;96.04;102822.56;5010987;28;20093;-69
2022/10/19 00:19:24;;;;;;;7.57;2.60;;;;;;;7.50;96.10;102819.97;5020269;28;20689;-69
2022/10/19 00:21:52;;;;;;;13.80;3.53;;;;;;;7.55;96.55;102816.53;5013257;28;20571;-69
2022/10/19 00:24:20;;;;;;;13.63;3.83;;;;;;;7.59;97.10;102817.47;5013010;28;20050;-69
2022/10/19 00:26:47;;;;;;;12.52;3.78;;;;;;;7.66;97.86;102808.84;5013910;28;20522;-70
2022/10/19 00:29:14;;;;;;;15.23;4.38;;;;;;;7.70;98.10;102804.50;5011148;28;20046;-69
2022/10/19 00:31:42;;;;;;;12.07;4.25;;;;;;;7.73;98.39;102799.31;5010545;28;20053;-70
2022/10/19 00:34:09;;;;;;;20.20;4.15;;;;;;;7.74;98.37;102799.31;5012657;28;20065;-70
2022/10/19 00:36:39;;;;;;;11.70;3.90;;;;;;;7.73;98.31;102813.28;5013968;28;20762;-70
2022/10/19 00:39:11;;;;;;;15.23;4.45;;;;;;;7.70;98.35;102808.00;5012118;28;20146;-69
2022/10/19 00:41:39;;;;;;;15.32;4.18;;;;;;;7.71;98.31;102803.66;5011546;28;20050;-70
2022/10/19 00:44:12;;;;;;;12.98;4.47;;;;;;;7.71;98.47;102806.28;5010220;28;20046;-70
2022/10/19 00:46:43;;;;;;;12.32;4.10;;;;;;;7.69;98.50;102808.84;5000156;28;20042;-70
2022/10/19 00:49:25;;;;;;;16.00;4.60;;;;;;;7.70;98.54;102807.13;5009250;28;20039;-73
2022/10/19 00:52:02;;;;;;;13.10;4.47;;;;;;;7.70;98.82;102810.63;5008495;28;20043;-70
2022/10/19 00:54:34;;;;;;;16.65;4.60;;;;;;;7.70;99.09;102812.38;5010435;28;20049;-70
2022/10/19 00:57:03;;;;;;;11.93;4.50;;;;;;;7.69;98.97;102816.72;5012323;28;20053;-70
2022/10/19 00:59:32;;;;;;;9.52;4.43;;;;;;;7.69;98.94;102814.09;5004812;28;20046;-69
2022/10/19 01:02:02;;;;;;;14.23;4.72;;;;;;;7.67;98.98;102818.47;5006746;28;20069;-70
2022/10/19 01:04:34;;;;;;;13.35;4.70;;;;;;;7.66;99.03;102816.72;5013503;28;20034;-69
2022/10/19 01:07:04;;;;;;;11.35;4.65;;;;;;;7.64;98.71;102815.81;5014177;28;20046;-69
2022/10/19 01:09:31;;;;;;;24.45;5.30;;;;;;;7.63;98.70;102819.28;5012081;28;20050;-69
2022/10/19 01:12:35;;;;;;;14.93;4.80;;;;;;;7.59;98.77;102802.63;5008322;28;20439;-69
2022/10/19 01:15:28;;;;;;;20.73;5.30;;;;;;;7.59;98.99;102817.47;5006196;28;20046;-69
2022/10/19 01:18:32;;;;;;;12.32;5.00;;;;;;;7.56;99.00;102806.94;5000638;28;20066;-69
2022/10/19 01:21:14;;;;;;;12.60;4.85;;;;;;;7.55;99.25;102811.28;5009877;28;20077;-69
2022/10/19 01:24:04;;;;;;;12.95;5.38;;;;;;;7.53;99.29;102810.38;5002643;28;20042;-68
2022/10/19 01:26:56;;;;;;;10.55;5.32;;;;;;;7.51;99.31;102803.34;5006901;28;20062;-69
2022/10/19 01:29:47;;;;;;;12.40;5.13;;;;;;;7.48;99.34;102805.97;5004820;28;20035;-69
2022/10/19 01:32:30;;;;;;;12.07;5.60;;;;;;;7.46;99.40;102804.19;5010004;28;20031;-69
2022/10/19 01:35:16;;;;;;;17.13;5.70;;;;;;;7.45;99.58;102804.16;5012061;28;20051;-69
2022/10/19 01:38:11;;;;;;;11.88;5.03;;;;;;;7.43;99.42;102791.03;5009155;28;20046;-69
2022/10/19 01:40:59;;;;;;;18.98;5.93;;;;;;;7.42;99.36;102788.38;5010228;28;20043;-69
2022/10/19 01:43:58;;;;;;;16.00;6.15;;;;;;;7.37;99.44;102795.28;5008064;28;20038;-69
2022/10/19 01:46:37;;;;;;;14.73;5.78;;;;;;;7.35;99.61;102787.41;5011264;28;20054;-69
2022/10/19 01:49:28;;;;;;;18.20;6.20;;;;;;;7.35;99.75;102778.66;5008378;28;20043;-69
2022/10/19 01:52:02;;;;;;;13.32;6.05;;;;;;;7.33;99.78;102783.88;5007524;28;20517;-69
2022/10/19 01:54:42;;;;;;;17.52;6.90;;;;;;;7.32;99.61;102778.63;5007846;28;20053;-69
2022/10/19 01:57:18;;;;;;;14.70;6.53;;;;;;;7.28;99.96;102770.69;5018368;28;20132;-69
2022/10/19 01:59:48;;;;;;;12.82;6.20;;;;;;;7.28;99.98;102781.19;5016207;28;20054;-69
2022/10/19 02:02:19;;;;;;;16.83;6.47;;;;;;;7.29;99.85;102779.44;5011723;28;20043;-69
2022/10/19 02:04:50;;;;;;;14.77;6.38;;;;;;;7.28;100.00;102775.03;5009571;28;20101;-69
2022/10/19 02:07:21;;;;;;;13.52;6.43;;;;;;;7.28;100.00;102773.31;5009986;28;20046;-69
2022/10/19 02:09:49;;;;;;;17.10;6.65;;;;;;;7.26;100.00;102776.78;5008514;28;20097;-69
2022/10/19 02:12:17;;;;;;;16.27;6.32;;;;;;;7.25;100.00;102772.41;5010923;28;20051;-69
2022/10/19 02:14:55;;;;;;;15.02;6.40;;;;;;;7.22;100.00;102769.72;5015737;28;20511;-69
2022/10/19 02:17:32;;;;;;;16.00;6.75;;;;;;;7.21;99.98;102767.94;5007422;28;20530;-69
2022/10/19 02:20:00;;;;;;;17.58;6.40;;;;;;;7.19;100.00;102770.56;5011043;28;20504;-70
2022/10/19 02:22:28;;;;;;;18.55;6.95;;;;;;;7.19;100.00;102767.03;5019302;28;20527;-69
2022/10/19 02:24:55;;;;;;;16.50;6.88;;;;;;;7.17;100.00;102768.78;5009424;28;20034;-69
2022/10/19 02:27:22;;;;;;;16.70;6.82;;;;;;;7.15;100.00;102769.66;5011488;28;20049;-69
2022/10/19 02:29:50;;;;;;;17.25;6.72;;;;;;;7.15;100.00;102766.13;5007966;28;20046;-69
2022/10/19 02:32:20;;;;;;;15.13;6.35;;;;;;;7.13;100.00;102766.09;5011570;28;20039;-69
2022/10/19 02:34:47;;;;;;;17.33;6.90;;;;;;;7.11;100.00;102762.56;5007952;28;20046;-70
2022/10/19 02:37:14;;;;;;;17.77;7.15;;;;;;;7.09;100.00;102774.78;5010431;28;20510;-70
2022/10/19 02:39:42;;;;;;;15.10;6.68;;;;;;;7.06;100.00;102763.38;5005932;28;20074;-69
2022/10/19 02:42:37;;;;;;;18.00;7.10;;;;;;;7.01;100.00;102762.44;5014937;28;20491;-70
2022/10/19 02:45:04;;;;;;;21.05;6.70;;;;;;;7.02;100.00;102756.31;5008663;28;20050;-69
2022/10/19 02:47:43;;;;;;;17.60;6.90;;;;;;;6.97;100.00;102746.63;5010072;28;20089;-70
2022/10/19 02:50:12;;;;;;;16.73;6.68;;;;;;;6.92;100.00;102752.66;5008847;28;20043;-69
2022/10/19 02:52:40;;;;;;;16.08;6.90;;;;;;;6.89;99.91;102749.97;5008881;28;20074;-70
2022/10/19 02:55:08;;;;;;;14.82;6.95;;;;;;;6.89;100.00;102744.75;5009925;28;20133;-70
2022/10/19 02:57:35;;;;;;;10.48;6.53;;;;;;;6.87;100.00;102736.88;5008547;28;20120;-70
2022/10/19 03:00:07;;;;;;;14.63;6.57;;;;;;;6.86;100.00;102728.97;5010708;28;20097;-70
2022/10/19 03:02:34;;;;;;;15.65;6.78;;;;;;;6.83;100.00;102730.69;5010038;28;20038;-70
2022/10/19 03:05:02;;;;;;;11.52;6.85;;;;;;;6.82;100.00;102734.16;5009044;28;20046;-70
2022/10/19 03:07:29;;;;;;;11.57;6.85;;;;;;;6.82;100.00;102734.16;5008589;28;20073;-70
2022/10/19 03:09:56;;;;;;;12.88;6.93;;;;;;;6.81;100.00;102729.78;5010797;28;20100;-70
2022/10/19 03:12:24;;;;;;;15.57;6.80;;;;;;;6.81;100.00;102734.16;5005342;28;20051;-69
2022/10/19 03:14:51;;;;;;;14.15;6.53;;;;;;;6.80;100.00;102735.00;5009962;28;20504;-69
2022/10/19 03:17:18;;;;;;;11.38;7.30;;;;;;;6.79;100.00;102743.72;5007430;28;20460;-70
2022/10/19 03:19:45;;;;;;;15.82;6.88;;;;;;;6.77;100.00;102741.06;5010192;28;20529;-70
2022/10/19 03:22:13;;;;;;;11.48;6.78;;;;;;;6.75;100.00;102740.19;5007446;28;20072;-70
2022/10/19 03:24:41;;;;;;;14.93;7.47;;;;;;;6.75;100.00;102744.53;5010300;28;20069;-70
2022/10/19 03:27:09;;;;;;;16.92;6.82;;;;;;;6.72;100.00;102742.75;5009659;28;20049;-70
2022/10/19 03:29:36;;;;;;;16.23;7.35;;;;;;;6.70;100.00;102738.34;5009827;28;20086;-70
2022/10/19 03:32:03;;;;;;;19.88;8.15;;;;;;;6.67;99.92;102733.91;5009227;28;20109;-70
2022/10/19 03:34:30;;;;;;;15.98;7.50;;;;;;;6.64;99.95;102737.38;5010784;28;20068;-69
2022/10/19 03:36:58;;;;;;;15.80;7.38;;;;;;;6.61;99.87;102741.69;5008346;28;20035;-70
2022/10/19 03:39:25;;;;;;;17.70;7.70;;;;;;;6.58;100.00;102737.28;5011363;28;20487;-70
2022/10/19 03:41:52;;;;;;;18.65;7.57;;;;;;;6.57;100.00;102735.50;5013661;28;20053;-70
2022/10/19 03:44:19;;;;;;;17.83;7.20;;;;;;;6.58;100.00;102733.75;5011766;28;20501;-70
2022/10/19 03:46:46;;;;;;;16.13;6.88;;;;;;;6.57;100.00;102727.66;5010730;28;20043;-70
2022/10/19 03:49:14;;;;;;;16.02;7.65;;;;;;;6.59;100.00;102727.66;5013782;28;20846;-69
2022/10/19 03:51:41;;;;;;;14.98;6.72;;;;;;;6.59;100.00;102727.66;5011836;28;20051;-70
2022/10/19 03:54:14;;;;;;;19.15;7.35;;;;;;;6.61;100.00;102723.34;5011218;28;20043;-70
2022/10/19 03:56:42;;;;;;;15.48;6.97;;;;;;;6.63;100.00;102726.88;5010884;28;20043;-70
2022/10/19 03:59:13;;;;;;;17.80;7.32;;;;;;;6.61;100.00;102731.19;5030617;28;20041;-70
2022/10/19 04:01:45;;;;;;;14.95;7.40;;;;;;;6.62;100.00;102723.34;5026385;28;20043;-70
2022/10/19 04:04:16;;;;;;;14.30;7.47;;;;;;;6.64;100.00;102726.88;5001682;28;20580;-70
2022/10/19 04:06:48;;;;;;;11.88;6.85;;;;;;;6.65;100.00;102731.28;5011992;28;20035;-70
2022/10/19 04:09:21;;;;;;;15.25;7.28;;;;;;;6.66;100.00;102734.78;5012078;28;20049;-70
2022/10/19 04:11:49;;;;;;;15.95;7.50;;;;;;;6.68;100.00;102735.69;5006514;28;20117;-69
2022/10/19 04:14:19;;;;;;;17.00;7.38;;;;;;;6.69;100.00;102732.19;5011312;28;20047;-69
2022/10/19 04:17:01;;;;;;;15.07;7.50;;;;;;;6.69;100.00;102724.34;5012577;28;20034;-69
2022/10/19 04:19:28;;;;;;;17.52;8.00;;;;;;;6.70;100.00;102731.34;5010536;28;20042;-69
2022/10/19 04:21:56;;;;;;;15.10;7.55;;;;;;;6.70;100.00;102728.72;5018895;28;20782;-70
2022/10/19 04:24:24;;;;;;;18.80;8.07;;;;;;;6.71;100.00;102727.88;5018831;28;20042;-69
2022/10/19 04:26:54;;;;;;;18.77;8.25;;;;;;;6.72;100.00;102727.00;5020082;28;20144;-69
2022/10/19 04:29:24;;;;;;;17.50;7.72;;;;;;;6.72;100.00;102723.50;5005110;28;20924;-70
2022/10/19 04:31:57;;;;;;;14.00;8.65;;;;;;;6.71;100.00;102724.38;5012588;28;20042;-69
2022/10/19 04:34:25;;;;;;;16.40;7.95;;;;;;;6.68;100.00;102736.56;5009005;28;20108;-69
2022/10/19 04:36:52;;;;;;;16.60;8.15;;;;;;;6.67;100.00;102736.53;5010226;28;20057;-70
2022/10/19 04:39:19;;;;;;;12.88;8.48;;;;;;;6.76;100.00;102725.31;5015926;28;20041;-71
2022/10/19 04:41:46;;;;;;;18.05;10.27;;;;;;;7.15;100.00;102726.78;5002204;28;20046;-70
2022/10/19 04:44:14;;;;;;;17.00;9.77;;;;;;;7.39;100.00;102728.84;5011972;28;20038;-70
2022/10/19 04:46:42;;;;;;;20.48;10.32;;;;;;;7.60;100.00;102724.72;5014680;28;20170;-70
2022/10/19 04:49:09;;;;;;;23.95;10.98;;;;;;;7.71;100.00;102730.13;5014771;28;20050;-71
2022/10/19 04:51:36;;;;;;;22.70;10.35;;;;;;;7.70;100.00;102723.13;5012743;28;20069;-70
2022/10/19 04:54:03;;;;;;;18.60;9.75;;;;;;;7.68;100.00;102724.84;5012466;28;20043;-71
2022/10/19 04:56:31;;;;;;;16.77;8.68;;;;;;;7.50;100.00;102731.63;5010900;28;20042;-71
2022/10/19 04:58:59;;;;;;;16.52;8.52;;;;;;;7.28;100.00;102743.56;5011963;28;20575;-71
2022/10/19 05:01:30;;;;;;;15.65;7.63;;;;;;;7.08;100.00;102748.53;5029396;28;20491;-72
2022/10/19 05:04:00;;;;;;;21.67;8.00;;;;;;;6.92;100.00;102739.56;5018320;28;20054;-71
2022/10/19 05:06:29;;;;;;;14.90;7.13;;;;;;;6.79;100.00;102738.50;5011711;28;20051;-70
2022/10/19 05:08:58;;;;;;;18.42;8.15;;;;;;;6.69;100.00;102740.06;5025813;28;20070;-70
2022/10/19 05:11:25;;;;;;;15.98;7.82;;;;;;;6.74;100.00;102722.69;5012411;28;20105;-70
2022/10/19 05:13:53;;;;;;;12.73;7.15;;;;;;;6.69;100.00;102726.97;5014386;28;20110;-70
2022/10/19 05:16:22;;;;;;;19.35;7.03;;;;;;;6.57;100.00;102717.16;4993699;28;20136;-70
2022/10/19 05:18:54;;;;;;;11.10;6.30;;;;;;;6.43;100.00;102718.66;4999105;28;20046;-71
2022/10/19 05:21:22;;;;;;;11.82;6.28;;;;;;;6.29;100.00;102734.16;5010292;28;20054;-70
2022/10/19 05:23:54;;;;;;;14.55;6.80;;;;;;;6.17;99.76;102727.81;5012068;28;20047;-70
2022/10/19 05:26:25;;;;;;;17.50;6.70;;;;;;;6.12;100.00;102731.22;5012017;28;20093;-71
2022/10/19 05:29:00;;;;;;;14.00;6.53;;;;;;;6.11;100.00;102724.22;5010886;28;20046;-57
2022/10/19 05:31:31;;;;;;;15.75;6.38;;;;;;;6.03;99.91;102724.97;5010748;28;20310;-59
2022/10/19 05:33:59;;;;;;;13.68;6.30;;;;;;;5.94;99.42;102719.50;5010374;28;20058;-56
2022/10/19 05:36:36;;;;;;;13.00;6.63;;;;;;;5.81;99.28;102721.03;5013359;28;20833;-57
2022/10/19 05:39:14;;;;;;;15.07;6.55;;;;;;;5.72;99.06;102724.31;5010628;28;20129;-70
2022/10/19 05:41:46;;;;;;;11.43;7.18;;;;;;;5.70;99.10;102727.78;5012217;28;20765;-72
2022/10/19 05:44:19;;;;;;;13.93;6.85;;;;;;;5.64;99.10;102718.06;5007915;28;20043;-70
2022/10/19 05:46:48;;;;;;;13.48;7.70;;;;;;;5.65;99.20;102724.16;5010856;28;20041;-69
2022/10/19 05:49:19;;;;;;;13.43;8.18;;;;;;;5.67;99.69;102730.31;5015722;28;20046;-69
2022/10/19 05:51:48;;;;;;;17.17;8.50;;;;;;;5.71;100.00;102726.94;5011313;28;20049;-70
2022/10/19 05:54:16;;;;;;;12.90;9.10;;;;;;;5.71;100.00;102719.94;5011187;28;20500;-70
2022/10/19 05:56:44;;;;;;;14.48;9.23;;;;;;;5.69;100.00;102723.38;5012055;28;20045;-70
2022/10/19 05:59:19;;;;;;;15.63;8.98;;;;;;;5.68;100.00;102719.00;5011555;28;20085;-70
2022/10/19 06:01:47;;;;;;;14.90;8.40;;;;;;;5.66;100.00;102718.06;5007923;28;20038;-70
2022/10/19 06:04:15;;;;;;;16.55;7.80;;;;;;;5.62;100.00;102719.75;5011505;28;20047;-69
2022/10/19 06:06:44;;;;;;;14.20;7.28;;;;;;;5.54;99.87;102722.25;5015326;28;20050;-70
2022/10/19 06:09:11;;;;;;;12.05;7.70;;;;;;;5.49;99.82;102718.63;5002166;28;20061;-71
2022/10/19 06:11:41;;;;;;;14.13;8.18;;;;;;;5.44;99.70;102717.66;5012945;28;20046;-70
2022/10/19 06:14:14;;;;;;;15.77;7.45;;;;;;;5.39;99.45;102720.16;5016668;28;20049;-70
2022/10/19 06:16:44;;;;;;;14.13;7.22;;;;;;;5.34;99.36;102707.84;5028265;28;20097;-70
2022/10/19 06:19:11;;;;;;;11.18;7.95;;;;;;;5.32;99.39;102717.41;5016434;28;20471;-70
2022/10/19 06:21:38;;;;;;;12.15;8.57;;;;;;;5.38;99.65;102714.91;5011914;28;20121;-70
2022/10/19 06:24:13;;;;;;;20.35;9.20;;;;;;;5.44;99.99;102717.66;5012491;28;20125;-70
2022/10/19 06:26:40;;;;;;;15.30;9.55;;;;;;;5.51;100.00;102714.31;5014784;28;20041;-70
2022/10/19 06:29:07;;;;;;;14.57;9.13;;;;;;;5.55;100.00;102715.25;5011298;28;20124;-70
2022/10/19 06:31:35;;;;;;;16.02;8.82;;;;;;;5.57;99.95;102713.56;5012660;28;20038;-70
2022/10/19 06:34:03;;;;;;;17.80;8.85;;;;;;;5.63;99.86;102715.44;5017898;28;20127;-70
2022/10/19 06:36:31;;;;;;;16.75;9.10;;;;;;;5.69;100.00;102720.78;5016192;28;20423;-70
2022/10/19 06:39:00;;;;;;;14.02;8.65;;;;;;;5.74;100.00;102722.63;5025509;28;20750;-70
2022/10/19 06:41:30;;;;;;;15.93;8.75;;;;;;;5.81;100.00;102726.25;5013142;28;20336;-70
2022/10/19 06:44:08;;;;;;;13.82;9.00;;;;;;;5.89;100.00;102715.94;5009324;28;20118;-70
2022/10/19 06:46:37;;;;;;;15.30;9.05;;;;;;;5.98;100.00;102715.22;5004025;28;20053;-70
2022/10/19 06:49:04;;;;;;;13.65;8.85;;;;;;;6.05;100.00;102715.41;5011573;28;20042;-70
2022/10/19 06:51:33;;;;;;;15.65;8.60;;;;;;;6.12;100.00;102715.50;5012505;28;20480;-70
2022/10/19 06:54:00;;;;;;;14.10;8.60;;;;;;;6.17;100.00;102713.88;5017020;28;20536;-70
2022/10/19 06:56:27;;;;;;;16.52;8.40;;;;;;;6.26;100.00;102718.41;5011942;28;20527;-70
2022/10/19 06:58:54;;;;;;;10.70;8.32;;;;;;;6.33;100.00;102712.41;5011941;28;20046;-70
2022/10/19 07:01:22;;;;;;;14.55;8.60;;;;;;;6.40;100.00;102709.03;5016796;28;20046;-70
2022/10/19 07:03:54;;;;;;;15.43;8.90;;;;;;;6.45;99.78;102714.34;5021346;28;20129;-70
2022/10/19 07:06:22;;;;;;;11.52;8.93;;;;;;;6.55;100.00;102708.41;5011614;28;20089;-70
2022/10/19 07:08:51;;;;;;;12.10;7.72;;;;;;;6.62;99.76;102710.25;5011640;28;20813;-70
2022/10/19 07:11:21;;;;;;;13.43;7.80;;;;;;;6.71;99.70;102704.28;4991199;28;20102;-70
2022/10/19 07:13:49;;;;;;;11.50;7.43;;;;;;;6.80;99.49;102712.28;4991697;28;20058;-70
2022/10/19 07:16:18;;;;;;;14.20;7.35;;;;;;;6.89;99.21;102716.81;4998923;28;20093;-70
2022/10/19 07:18:51;;;;;;;12.57;7.55;;;;;;;6.89;99.48;102716.81;5019444;28;20042;-70
2022/10/19 07:21:20;;;;;;;9.60;6.95;;;;;;;6.98;99.75;102719.56;5010928;28;20062;-70
2022/10/19 07:23:48;;;;;;;13.60;7.30;;;;;;;7.06;99.70;102726.66;5010810;28;20038;-69
2022/10/19 07:26:25;;;;;;;14.93;7.78;;;;;;;7.13;99.80;102724.13;5011317;28;20050;-69
2022/10/19 07:28:55;;;;;;;9.38;6.70;;;;;;;7.20;99.98;102725.13;5011266;28;20043;-70
2022/10/19 07:31:25;;;;;;;10.82;6.70;;;;;;;7.32;99.68;102726.16;5011692;28;20149;-69
2022/10/19 07:34:01;;;;;;;10.65;6.55;;;;;;;7.43;99.69;102725.41;5017432;28;20042;-69
2022/10/19 07:36:31;;;;;;;13.10;6.28;;;;;;;7.54;99.63;102728.16;5016818;28;20100;-70
2022/10/19 07:39:00;;;;;;;9.57;6.30;;;;;;;7.67;99.37;102721.34;5031089;28;20499;-71
2022/10/19 07:41:28;;;;;;;10.48;5.95;;;;;;;7.82;99.20;102717.13;5023412;28;20133;-70
2022/10/19 07:43:56;;;;;;;10.75;5.88;;;;;;;7.95;99.17;102713.78;5010502;28;20087;-70
2022/10/19 07:46:28;;;;;;;9.23;6.10;;;;;;;8.11;98.91;102708.66;5023799;28;20504;-70
2022/10/19 07:48:55;;;;;;;9.30;5.70;;;;;;;8.29;98.66;102702.69;5020426;28;20034;-70
2022/10/19 07:51:22;;;;;;;12.73;5.45;;;;;;;8.47;98.31;102700.25;5014437;28;20522;-70
2022/10/19 07:53:49;;;;;;;10.77;5.65;;;;;;;8.66;97.83;102705.66;5016332;28;20078;-70
2022/10/19 07:56:27;;;;;;;9.68;6.57;;;;;;;8.86;96.95;102698.78;5010853;28;20042;-70
2022/10/19 07:58:57;;;;;;;12.43;6.32;;;;;;;9.06;96.14;102699.78;5008622;28;20047;-70
2022/10/19 08:01:31;;;;;;;12.82;6.00;;;;;;;9.19;95.73;102699.00;5030855;28;20034;-70
2022/10/19 08:04:00;;;;;;;9.82;6.75;;;;;;;9.32;95.68;102703.44;5017494;28;20050;-70
2022/10/19 08:06:48;;;;;;;12.18;6.88;;;;;;;9.46;95.18;102706.13;5010733;28;20062;-70
2022/10/19 08:09:15;;;;;;;16.85;8.40;;;;;;;9.61;94.45;102712.34;5010827;28;20100;-70
2022/10/19 08:12:03;;;;;;;11.82;7.68;;;;;;;9.74;93.97;102716.78;5010830;28;20530;-70
2022/10/19 08:14:32;;;;;;;15.85;8.10;;;;;;;9.86;93.47;102715.94;5010292;28;20097;-71
2022/10/19 08:16:59;;;;;;;12.80;8.00;;;;;;;9.99;92.56;102713.31;5010969;28;20500;-70
2022/10/19 08:19:26;;;;;;;16.05;8.73;;;;;;;10.07;92.15;102703.69;5010138;28;20038;-70
2022/10/19 08:21:53;;;;;;;13.50;7.97;;;;;;;10.14;91.64;102708.06;5011683;28;20066;-70
2022/10/19 08:24:21;;;;;;;12.80;7.45;;;;;;;10.23;91.01;102697.53;5014068;28;20039;-70
2022/10/19 08:26:50;;;;;;;15.32;7.82;;;;;;;10.32;90.52;102711.63;5013978;28;20042;-70
2022/10/19 08:29:20;;;;;;;10.18;7.80;;;;;;;10.39;90.48;102708.13;5013597;28;20050;-70
2022/10/19 08:31:48;;;;;;;15.10;7.45;;;;;;;10.49;89.85;102694.06;5014295;28;20047;-70
2022/10/19 08:34:16;;;;;;;10.70;7.80;;;;;;;10.59;89.72;102694.06;5013527;28;20365;-70
2022/10/19 08:36:43;;;;;;;13.35;7.00;;;;;;;10.65;88.93;102691.41;5014098;28;20046;-70
2022/10/19 08:39:11;;;;;;;8.73;5.75;;;;;;;10.77;88.10;102682.63;5013818;28;20042;-70
2022/10/19 08:41:39;;;;;;;8.98;4.60;;;;;;;10.86;87.94;102683.47;5013063;28;20042;-70
2022/10/19 08:45:00;;;;;;;7.70;3.55;;;;;;;10.97;87.16;102674.66;5013138;28;20054;-70
2022/10/19 08:47:36;;;;;;;7.78;2.88;;;;;;;11.06;85.62;102679.91;5013879;28;20826;-70
2022/10/19 08:50:17;;;;;;;4.70;3.00;;;;;;;11.18;85.22;102684.28;5012285;28;20049;-70
2022/10/19 08:52:54;;;;;;;8.45;2.72;;;;;;;11.22;85.58;102669.31;5019746;28;20042;-70
2022/10/19 08:55:37;;;;;;;6.78;2.35;;;;;;;11.32;84.84;102673.66;5020868;28;20042;-70
2022/10/19 08:58:25;;;;;;;4.28;2.05;;;;;;;11.44;83.46;102670.97;5013384;28;20043;-70
2022/10/19 09:01:19;;;;;;;8.43;2.03;;;;;;;11.52;83.51;102670.03;4993974;28;20424;-70
2022/10/19 09:03:58;;;;;;;6.53;2.00;;;;;;;11.62;82.72;102669.13;5018462;28;20053;-70
2022/10/19 09:06:43;;;;;;;6.72;2.10;;;;;;;11.67;82.30;102659.38;5032933;28;20085;-70
2022/10/19 09:09:18;;;;;;;4.65;2.00;;;;;;;11.76;82.43;102658.47;5031096;28;20042;-70
2022/10/19 09:11:49;;;;;;;6.82;2.10;;;;;;;11.81;82.31;102651.38;5017000;28;20042;-70
2022/10/19 09:14:37;;;;;;;13.70;2.47;;;;;;;11.92;81.35;102646.88;5012926;28;20043;-70
2022/10/19 09:17:15;;;;;;;6.82;1.80;;;;;;;12.04;80.58;102645.97;5013371;28;20038;-70
2022/10/19 09:19:43;;;;;;;5.00;1.80;;;;;;;12.15;79.37;102640.59;5013615;28;20054;-70
2022/10/19 09:22:24;;;;;;;7.60;2.40;;;;;;;12.22;79.56;102634.34;5012754;28;20053;-70
2022/10/19 09:24:58;;;;;;;7.30;1.70;;;;;;;12.31;78.82;102632.53;5012508;28;20046;-70
2022/10/19 09:27:35;;;;;;;3.97;1.85;;;;;;;12.40;78.05;102633.31;5014463;28;20031;-70
2022/10/19 09:30:23;;;;;;;7.47;1.90;;;;;;;12.48;77.91;102632.34;5016479;28;20034;-70
2022/10/19 09:32:59;;;;;;;5.28;2.03;;;;;;;12.60;76.64;102639.31;5011891;28;20051;-69
2022/10/19 09:35:37;;;;;;;3.55;1.80;;;;;;;12.72;76.22;102634.75;5017601;28;20085;-70
2022/10/19 09:38:06;;;;;;;7.40;1.85;;;;;;;12.81;74.41;102631.16;5019473;28;20047;-70
2022/10/19 09:40:34;;;;;;;9.20;1.25;;;;;;;12.90;73.79;102630.16;5014170;28;20049;-70
2022/10/19 09:43:18;;;;;;;7.03;1.55;;;;;;;12.96;73.81;102632.75;5014947;28;20046;-70
2022/10/19 09:46:03;;;;;;;3.70;1.50;;;;;;;13.02;73.90;102635.31;5023119;28;20074;-69
2022/10/19 09:48:52;;;;;;;6.28;1.35;;;;;;;13.09;73.14;102640.53;5005095;28;20042;-70
2022/10/19 09:51:20;;;;;;;6.53;1.33;;;;;;;13.14;71.84;102633.41;5010342;28;20101;-70
2022/10/19 09:53:58;;;;;;;6.30;1.20;;;;;;;13.22;71.74;102622.72;5012206;28;20039;-70
2022/10/19 09:56:26;;;;;;;4.15;0.95;;;;;;;13.30;71.37;102620.84;5011660;28;20050;-70
2022/10/19 09:58:57;;;;;;;3.97;1.00;;;;;;;13.35;70.66;102608.41;5012420;28;20086;-70
2022/10/19 10:01:39;;;;;;;6.43;1.13;;;;;;;13.39;69.71;102609.22;5011825;28;20109;-70
2022/10/19 10:04:16;;;;;;;7.20;1.35;;;;;;;13.43;69.13;102611.84;5010891;28;20039;-70
2022/10/19 10:06:48;;;;;;;4.97;1.05;;;;;;;13.43;69.74;102618.94;5012571;28;20109;-72
2022/10/19 10:09:21;;;;;;;5.35;0.82;;;;;;;13.42;68.76;102611.88;5012457;28;20038;-70
2022/10/19 10:11:50;;;;;;;4.13;0.90;;;;;;;13.45;68.83;102618.00;5011085;28;20050;-70
2022/10/19 10:14:27;;;;;;;4.47;0.80;;;;;;;13.53;67.93;102615.25;5012210;28;20038;-70
2022/10/19 10:17:13;;;;;;;5.22;1.20;;;;;;;13.53;68.46;102620.56;5011963;28;20050;-70
2022/10/19 10:20:05;;;;;;;5.55;1.05;;;;;;;13.57;68.06;102619.63;5011856;28;20050;-70
2022/10/19 10:22:35;;;;;;;4.43;0.80;;;;;;;13.57;68.19;102618.72;5010906;28;20054;-70
2022/10/19 10:25:16;;;;;;;4.75;0.82;;;;;;;13.55;67.89;102610.81;5011559;28;20046;-69
2022/10/19 10:27:58;;;;;;;6.05;1.65;;;;;;;13.52;68.05;102616.16;5008804;28;20512;-70
2022/10/19 10:30:36;;;;;;;7.22;1.30;;;;;;;13.46;69.05;102613.59;5011589;28;20081;-70
2022/10/19 10:33:04;;;;;;;3.05;0.90;;;;;;;13.48;68.54;102606.50;5011426;28;20046;-72
2022/10/19 10:36:00;;;;;;;6.82;1.33;;;;;;;13.47;69.19;102607.41;5011472;28;20065;-71
2022/10/19 10:38:34;;;;;;;4.38;1.10;;;;;;;13.51;68.33;102610.00;5013948;28;20385;-72
2022/10/19 10:41:27;;;;;;;5.78;1.15;;;;;;;13.54;69.03;102597.56;5015403;28;20758;-71
2022/10/19 10:44:02;;;;;;;6.95;1.77;;;;;;;13.59;69.29;102590.44;5001027;28;20062;-72
2022/10/19 10:47:03;;;;;;;4.85;1.25;;;;;;;13.73;68.13;102584.94;5008667;28;20952;-69
2022/10/19 10:49:37;;;;;;;6.22;1.02;;;;;;;13.82;68.44;102576.81;5008395;28;20794;-68
2022/10/19 10:52:13;;;;;;;4.00;1.00;;;;;;;13.92;68.29;102567.81;5011699;28;20050;-70
2022/10/19 10:54:59;;;;;;;5.28;0.80;;;;;;;14.02;67.28;102565.91;5012865;28;20389;-70
2022/10/19 10:57:35;;;;;;;3.15;0.90;;;;;;;14.04;65.90;102574.69;5022203;28;20047;-70
2022/10/19 11:00:14;;;;;;;4.07;1.27;;;;;;;14.01;66.78;102568.56;5013358;28;20042;-70
2022/10/19 11:02:53;;;;;;;4.13;1.15;;;;;;;14.10;65.48;102549.84;5012774;28;20047;-70
2022/10/19 11:05:30;;;;;;;5.63;0.80;;;;;;;14.13;65.64;102550.69;5031116;28;20045;-68
2022/10/19 11:08:17;;;;;;;3.58;0.90;;;;;;;14.21;66.05;102539.91;5030473;28;20073;-69
2022/10/19 11:11:12;;;;;;;3.47;0.80;;;;;;;14.36;64.53;102536.09;5011046;28;20121;-69
2022/10/19 11:13:55;;;;;;;4.22;0.85;;;;;;;14.52;63.11;102536.66;5005364;28;20060;-69
2022/10/19 11:16:40;;;;;;;3.85;0.60;;;;;;;14.58;62.74;102535.66;5011081;28;20626;-69
2022/10/19 11:19:49;;;;;;;;;;;;;;;14.62;62.93;102537.38;5016372;28;20044;-68
2022/10/19 11:22:46;;;;;;;5.32;0.70;;;;;;;14.73;61.04;102534.50;5005744;28;19937;-70
2022/10/19 11:25:29;;;;;;;5.20;0.80;;;;;;;14.76;61.61;102526.50;5004071;28;20046;-70
2022/10/19 11:28:20;;;;;;;3.80;0.80;;;;;;;14.83;60.69;102529.91;5011172;28;20050;-70
2022/10/19 11:31:01;;;;;;;1.90;0.60;;;;;;;14.84;61.63;102532.50;5009339;28;20042;-70
2022/10/19 11:33:54;;;;;;;3.10;0.63;;;;;;;14.91;62.08;102520.84;5013405;28;20054;-70
2022/10/19 11:36:58;;;;;;;2.53;0.85;;;;;;;15.01;61.72;102523.28;5020678;28;20037;-70
2022/10/19 11:40:07;;;;;;;2.40;0.73;;;;;;;15.14;59.49;102506.16;4991251;28;20122;-70
2022/10/19 11:42:55;;;;;;;1.65;0.80;;;;;;;15.10;60.38;102500.97;4996566;28;20058;-70
2022/10/19 11:45:49;;;;;;;2.92;0.90;;;;;;;15.06;61.01;102500.16;5010717;28;20460;-70
2022/10/19 11:48:43;;;;;;;2.22;0.65;;;;;;;15.11;60.33;102492.09;5010934;28;20042;-70
2022/10/19 11:51:50;;;;;;;2.85;0.90;;;;;;;15.17;60.48;102484.88;5010536;28;20039;-70
2022/10/19 11:54:37;;;;;;;3.22;0.77;;;;;;;15.16;61.65;102483.13;5010543;28;20793;-71